Ira Township, Michigan
Current Conditions -  °F | °C
As of 4:55 PM on Tuesday 21 Oct 2014 (Local Time) from KMTC Reporting Station
Overcast Overcast  
Wind Chill: 37°   Ceiling: 1600
Heat Index: 45°   Visibility: 10mi
Dew Point: 40°   Wind: 20mph
Humidity: 84%   Direction: 340°NNW
Pressure: 30.06"   Gusts: 28mph
Location:  42.7011°N, 82.659°W
Report Text: KMTC 212055Z 34017G24KT 10SM OVC016 07/05 A3006 RMK SLP192 T00710045 51017
Loading
Personal Weather Stations






























Interactive Weather Map
Tropical Storm Tracking
New forecast layout! Learn more

10-Day Weather Forecast

Advertisements
Track Severe Weather on mobile